sensor_id;sensor_type;location;lat;lon;timestamp;P1;durP1;ratioP1;P2;durP2;ratioP2
79464;SDS011;68932;47.410;8.232;2023-08-21T00:00:51;8.10;;;6.40;;
79464;SDS011;68932;47.410;8.232;2023-08-21T00:03:19;7.70;;;5.90;;
79464;SDS011;68932;47.410;8.232;2023-08-21T00:05:48;7.30;;;6.60;;
79464;SDS011;68932;47.410;8.232;2023-08-21T00:08:17;7.50;;;6.30;;
79464;SDS011;68932;47.410;8.232;2023-08-21T00:10:45;7.90;;;6.00;;
79464;SDS011;68932;47.410;8.232;2023-08-21T00:13:13;9.50;;;6.10;;
79464;SDS011;68932;47.410;8.232;2023-08-21T00:15:41;7.60;;;6.30;;
79464;SDS011;68932;47.410;8.232;2023-08-21T00:18:10;10.60;;;7.20;;
79464;SDS011;68932;47.410;8.232;2023-08-21T00:20:38;9.40;;;5.60;;
79464;SDS011;68932;47.410;8.232;2023-08-21T00:23:06;8.20;;;6.90;;
79464;SDS011;68932;47.410;8.232;2023-08-21T00:25:35;7.60;;;6.20;;
79464;SDS011;68932;47.410;8.232;2023-08-21T00:28:04;9.10;;;6.70;;
79464;SDS011;68932;47.410;8.232;2023-08-21T00:30:32;9.60;;;6.30;;
79464;SDS011;68932;47.410;8.232;2023-08-21T00:33:01;9.90;;;6.50;;
79464;SDS011;68932;47.410;8.232;2023-08-21T00:35:29;6.90;;;6.10;;
79464;SDS011;68932;47.410;8.232;2023-08-21T00:37:57;7.20;;;6.30;;
79464;SDS011;68932;47.410;8.232;2023-08-21T00:40:26;8.10;;;6.00;;
79464;SDS011;68932;47.410;8.232;2023-08-21T00:42:54;9.90;;;6.90;;
79464;SDS011;68932;47.410;8.232;2023-08-21T00:45:22;7.60;;;6.80;;
79464;SDS011;68932;47.410;8.232;2023-08-21T00:47:51;8.20;;;6.60;;
79464;SDS011;68932;47.410;8.232;2023-08-21T00:50:19;8.60;;;6.60;;
79464;SDS011;68932;47.410;8.232;2023-08-21T00:52:47;13.10;;;7.30;;
79464;SDS011;68932;47.410;8.232;2023-08-21T00:55:17;9.70;;;7.10;;
79464;SDS011;68932;47.410;8.232;2023-08-21T00:57:46;8.90;;;7.40;;
79464;SDS011;68932;47.410;8.232;2023-08-21T01:00:14;11.40;;;8.30;;
79464;SDS011;68932;47.410;8.232;2023-08-21T01:02:43;7.80;;;6.80;;
79464;SDS011;68932;47.410;8.232;2023-08-21T01:05:12;13.50;;;7.10;;
79464;SDS011;68932;47.410;8.232;2023-08-21T01:07:42;8.60;;;7.10;;
79464;SDS011;68932;47.410;8.232;2023-08-21T01:10:18;7.80;;;6.80;;
79464;SDS011;68932;47.410;8.232;2023-08-21T01:12:52;10.30;;;6.70;;
79464;SDS011;68932;47.410;8.232;2023-08-21T01:15:30;8.30;;;6.80;;
79464;SDS011;68932;47.410;8.232;2023-08-21T01:17:59;10.40;;;7.50;;
79464;SDS011;68932;47.410;8.232;2023-08-21T01:20:29;9.30;;;6.40;;
79464;SDS011;68932;47.410;8.232;2023-08-21T01:23:02;7.80;;;7.00;;
79464;SDS011;68932;47.410;8.232;2023-08-21T01:25:32;8.60;;;7.40;;
79464;SDS011;68932;47.410;8.232;2023-08-21T01:28:00;8.50;;;6.80;;
79464;SDS011;68932;47.410;8.232;2023-08-21T01:30:29;9.00;;;7.30;;
79464;SDS011;68932;47.410;8.232;2023-08-21T01:33:02;9.20;;;7.20;;
79464;SDS011;68932;47.410;8.232;2023-08-21T01:35:34;9.10;;;7.50;;
79464;SDS011;68932;47.410;8.232;2023-08-21T01:38:04;11.70;;;7.10;;
79464;SDS011;68932;47.410;8.232;2023-08-21T01:40:33;10.40;;;7.30;;
79464;SDS011;68932;47.410;8.232;2023-08-21T01:43:01;9.20;;;7.20;;
79464;SDS011;68932;47.410;8.232;2023-08-21T01:45:29;8.10;;;6.70;;
79464;SDS011;68932;47.410;8.232;2023-08-21T01:47:58;11.00;;;8.30;;
79464;SDS011;68932;47.410;8.232;2023-08-21T01:50:27;9.80;;;7.50;;
79464;SDS011;68932;47.410;8.232;2023-08-21T01:52:55;8.60;;;7.50;;
79464;SDS011;68932;47.410;8.232;2023-08-21T01:55:23;8.80;;;7.90;;
79464;SDS011;68932;47.410;8.232;2023-08-21T01:57:51;9.00;;;7.40;;
79464;SDS011;68932;47.410;8.232;2023-08-21T02:00:19;12.10;;;7.70;;
79464;SDS011;68932;47.410;8.232;2023-08-21T02:02:48;8.70;;;7.60;;
79464;SDS011;68932;47.410;8.232;2023-08-21T02:05:16;8.60;;;6.80;;
79464;SDS011;68932;47.410;8.232;2023-08-21T02:07:44;11.40;;;7.80;;
79464;SDS011;68932;47.410;8.232;2023-08-21T02:10:12;8.70;;;7.50;;
79464;SDS011;68932;47.410;8.232;2023-08-21T02:12:41;11.00;;;7.00;;
79464;SDS011;68932;47.410;8.232;2023-08-21T02:15:10;9.00;;;7.90;;
79464;SDS011;68932;47.410;8.232;2023-08-21T02:17:39;10.80;;;7.80;;
79464;SDS011;68932;47.410;8.232;2023-08-21T02:20:08;11.50;;;7.50;;
79464;SDS011;68932;47.410;8.232;2023-08-21T02:22:38;9.20;;;7.00;;
79464;SDS011;68932;47.410;8.232;2023-08-21T02:25:06;8.80;;;7.70;;
79464;SDS011;68932;47.410;8.232;2023-08-21T02:27:35;9.80;;;7.70;;
79464;SDS011;68932;47.410;8.232;2023-08-21T02:30:04;8.70;;;7.40;;
79464;SDS011;68932;47.410;8.232;2023-08-21T02:32:34;9.30;;;6.80;;
79464;SDS011;68932;47.410;8.232;2023-08-21T02:35:03;13.80;;;8.70;;
79464;SDS011;68932;47.410;8.232;2023-08-21T02:37:32;8.70;;;7.50;;
79464;SDS011;68932;47.410;8.232;2023-08-21T02:40:00;9.30;;;7.30;;
79464;SDS011;68932;47.410;8.232;2023-08-21T02:42:28;10.10;;;7.90;;
79464;SDS011;68932;47.410;8.232;2023-08-21T02:44:57;11.90;;;7.70;;
79464;SDS011;68932;47.410;8.232;2023-08-21T02:47:25;11.00;;;7.40;;
79464;SDS011;68932;47.410;8.232;2023-08-21T02:49:53;8.80;;;7.20;;
79464;SDS011;68932;47.410;8.232;2023-08-21T02:52:21;7.30;;;6.50;;
79464;SDS011;68932;47.410;8.232;2023-08-21T02:54:50;9.30;;;6.80;;
79464;SDS011;68932;47.410;8.232;2023-08-21T02:57:18;9.30;;;7.30;;
79464;SDS011;68932;47.410;8.232;2023-08-21T02:59:46;9.30;;;7.30;;
79464;SDS011;68932;47.410;8.232;2023-08-21T03:02:14;10.50;;;7.90;;
79464;SDS011;68932;47.410;8.232;2023-08-21T03:04:43;11.10;;;7.70;;
79464;SDS011;68932;47.410;8.232;2023-08-21T03:07:11;10.30;;;7.00;;
79464;SDS011;68932;47.410;8.232;2023-08-21T03:09:40;9.70;;;7.50;;
79464;SDS011;68932;47.410;8.232;2023-08-21T03:12:09;9.00;;;7.70;;
79464;SDS011;68932;47.410;8.232;2023-08-21T03:14:37;10.80;;;7.40;;
79464;SDS011;68932;47.410;8.232;2023-08-21T03:17:05;9.70;;;7.80;;
79464;SDS011;68932;47.410;8.232;2023-08-21T03:19:34;8.50;;;7.40;;
79464;SDS011;68932;47.410;8.232;2023-08-21T03:22:02;9.10;;;7.60;;
79464;SDS011;68932;47.410;8.232;2023-08-21T03:24:30;9.50;;;7.50;;
79464;SDS011;68932;47.410;8.232;2023-08-21T03:26:59;10.70;;;7.70;;
79464;SDS011;68932;47.410;8.232;2023-08-21T03:29:27;9.30;;;7.40;;
79464;SDS011;68932;47.410;8.232;2023-08-21T03:31:55;9.30;;;8.10;;
79464;SDS011;68932;47.410;8.232;2023-08-21T03:34:24;11.30;;;8.00;;
79464;SDS011;68932;47.410;8.232;2023-08-21T03:36:52;11.00;;;8.90;;
79464;SDS011;68932;47.410;8.232;2023-08-21T03:39:21;11.90;;;8.30;;
79464;SDS011;68932;47.410;8.232;2023-08-21T03:41:49;11.20;;;8.50;;
79464;SDS011;68932;47.410;8.232;2023-08-21T03:44:17;9.50;;;7.90;;
79464;SDS011;68932;47.410;8.232;2023-08-21T03:46:47;9.00;;;7.60;;
79464;SDS011;68932;47.410;8.232;2023-08-21T03:49:15;9.20;;;7.50;;
79464;SDS011;68932;47.410;8.232;2023-08-21T03:51:43;9.80;;;8.80;;
79464;SDS011;68932;47.410;8.232;2023-08-21T03:54:11;10.10;;;8.80;;
79464;SDS011;68932;47.410;8.232;2023-08-21T03:56:40;10.70;;;8.50;;
79464;SDS011;68932;47.410;8.232;2023-08-21T03:59:08;9.70;;;8.60;;
79464;SDS011;68932;47.410;8.232;2023-08-21T04:01:36;12.30;;;7.70;;
79464;SDS011;68932;47.410;8.232;2023-08-21T04:04:05;9.40;;;8.00;;
79464;SDS011;68932;47.410;8.232;2023-08-21T04:06:33;11.60;;;8.60;;
79464;SDS011;68932;47.410;8.232;2023-08-21T04:09:02;11.00;;;8.70;;
79464;SDS011;68932;47.410;8.232;2023-08-21T04:11:30;10.30;;;8.40;;
79464;SDS011;68932;47.410;8.232;2023-08-21T04:13:58;11.40;;;8.30;;
79464;SDS011;68932;47.410;8.232;2023-08-21T04:16:26;9.80;;;8.70;;
79464;SDS011;68932;47.410;8.232;2023-08-21T04:18:55;9.50;;;8.20;;
79464;SDS011;68932;47.410;8.232;2023-08-21T04:21:23;9.50;;;8.40;;
79464;SDS011;68932;47.410;8.232;2023-08-21T04:23:51;10.40;;;8.90;;
79464;SDS011;68932;47.410;8.232;2023-08-21T04:26:19;10.90;;;9.30;;
79464;SDS011;68932;47.410;8.232;2023-08-21T04:28:48;11.40;;;9.70;;
79464;SDS011;68932;47.410;8.232;2023-08-21T04:31:16;11.70;;;9.20;;
79464;SDS011;68932;47.410;8.232;2023-08-21T04:33:44;10.60;;;7.90;;
79464;SDS011;68932;47.410;8.232;2023-08-21T04:36:15;12.00;;;8.60;;
79464;SDS011;68932;47.410;8.232;2023-08-21T04:38:44;11.10;;;8.60;;
79464;SDS011;68932;47.410;8.232;2023-08-21T04:41:12;12.70;;;9.80;;
79464;SDS011;68932;47.410;8.232;2023-08-21T04:43:40;13.00;;;8.50;;
79464;SDS011;68932;47.410;8.232;2023-08-21T04:46:08;12.80;;;9.00;;
79464;SDS011;68932;47.410;8.232;2023-08-21T04:48:37;10.90;;;9.80;;
79464;SDS011;68932;47.410;8.232;2023-08-21T04:51:05;10.70;;;9.40;;
79464;SDS011;68932;47.410;8.232;2023-08-21T04:53:33;11.90;;;9.10;;
79464;SDS011;68932;47.410;8.232;2023-08-21T04:56:01;13.40;;;8.80;;
79464;SDS011;68932;47.410;8.232;2023-08-21T04:58:30;13.20;;;8.60;;
79464;SDS011;68932;47.410;8.232;2023-08-21T05:00:58;10.20;;;9.10;;
79464;SDS011;68932;47.410;8.232;2023-08-21T05:03:26;10.90;;;8.90;;
79464;SDS011;68932;47.410;8.232;2023-08-21T05:05:54;10.20;;;8.90;;
79464;SDS011;68932;47.410;8.232;2023-08-21T05:08:23;11.80;;;9.00;;
79464;SDS011;68932;47.410;8.232;2023-08-21T05:10:55;11.00;;;9.10;;
79464;SDS011;68932;47.410;8.232;2023-08-21T05:13:24;12.10;;;8.20;;
79464;SDS011;68932;47.410;8.232;2023-08-21T05:15:53;12.10;;;8.60;;
79464;SDS011;68932;47.410;8.232;2023-08-21T05:18:22;10.80;;;8.30;;
79464;SDS011;68932;47.410;8.232;2023-08-21T05:20:53;11.90;;;8.80;;
79464;SDS011;68932;47.410;8.232;2023-08-21T05:23:22;12.10;;;8.60;;
79464;SDS011;68932;47.410;8.232;2023-08-21T05:25:50;13.30;;;8.90;;
79464;SDS011;68932;47.410;8.232;2023-08-21T05:28:19;11.80;;;8.80;;
79464;SDS011;68932;47.410;8.232;2023-08-21T05:30:47;9.80;;;8.30;;
79464;SDS011;68932;47.410;8.232;2023-08-21T05:33:16;12.20;;;8.50;;
79464;SDS011;68932;47.410;8.232;2023-08-21T05:35:44;13.60;;;9.60;;
79464;SDS011;68932;47.410;8.232;2023-08-21T05:38:12;11.40;;;9.90;;
79464;SDS011;68932;47.410;8.232;2023-08-21T05:40:41;10.90;;;8.50;;
79464;SDS011;68932;47.410;8.232;2023-08-21T05:43:09;10.10;;;8.40;;
79464;SDS011;68932;47.410;8.232;2023-08-21T05:45:38;11.30;;;8.60;;
79464;SDS011;68932;47.410;8.232;2023-08-21T05:48:06;11.20;;;9.10;;
79464;SDS011;68932;47.410;8.232;2023-08-21T05:50:35;11.70;;;9.00;;
79464;SDS011;68932;47.410;8.232;2023-08-21T05:53:04;12.00;;;9.00;;
79464;SDS011;68932;47.410;8.232;2023-08-21T05:55:32;10.60;;;8.50;;
79464;SDS011;68932;47.410;8.232;2023-08-21T05:58:03;11.60;;;8.30;;
79464;SDS011;68932;47.410;8.232;2023-08-21T06:00:32;13.10;;;8.80;;
79464;SDS011;68932;47.410;8.232;2023-08-21T06:03:01;13.50;;;9.30;;
79464;SDS011;68932;47.410;8.232;2023-08-21T06:05:30;11.30;;;9.20;;
79464;SDS011;68932;47.410;8.232;2023-08-21T06:07:58;13.10;;;8.80;;
79464;SDS011;68932;47.410;8.232;2023-08-21T06:10:27;10.90;;;9.30;;
79464;SDS011;68932;47.410;8.232;2023-08-21T06:12:55;12.80;;;9.40;;
79464;SDS011;68932;47.410;8.232;2023-08-21T06:15:23;11.70;;;8.90;;
79464;SDS011;68932;47.410;8.232;2023-08-21T06:17:52;12.30;;;9.20;;
79464;SDS011;68932;47.410;8.232;2023-08-21T06:20:20;12.40;;;8.70;;
79464;SDS011;68932;47.410;8.232;2023-08-21T06:22:48;9.70;;;8.50;;
79464;SDS011;68932;47.410;8.232;2023-08-21T06:25:17;12.80;;;9.10;;
79464;SDS011;68932;47.410;8.232;2023-08-21T06:27:45;9.80;;;8.80;;
79464;SDS011;68932;47.410;8.232;2023-08-21T06:30:14;14.80;;;9.30;;
79464;SDS011;68932;47.410;8.232;2023-08-21T06:32:42;13.50;;;10.40;;
79464;SDS011;68932;47.410;8.232;2023-08-21T06:35:11;11.50;;;10.20;;
79464;SDS011;68932;47.410;8.232;2023-08-21T06:37:39;14.30;;;9.60;;
79464;SDS011;68932;47.410;8.232;2023-08-21T06:40:09;14.50;;;9.90;;
79464;SDS011;68932;47.410;8.232;2023-08-21T06:42:38;13.50;;;10.10;;
79464;SDS011;68932;47.410;8.232;2023-08-21T06:45:07;12.80;;;9.50;;
79464;SDS011;68932;47.410;8.232;2023-08-21T06:47:36;17.40;;;10.50;;
79464;SDS011;68932;47.410;8.232;2023-08-21T06:50:05;14.40;;;9.90;;
79464;SDS011;68932;47.410;8.232;2023-08-21T06:52:34;16.80;;;10.80;;
79464;SDS011;68932;47.410;8.232;2023-08-21T06:55:02;12.40;;;9.80;;
79464;SDS011;68932;47.410;8.232;2023-08-21T06:57:31;14.50;;;11.00;;
79464;SDS011;68932;47.410;8.232;2023-08-21T07:00:00;13.00;;;10.90;;
79464;SDS011;68932;47.410;8.232;2023-08-21T07:02:28;13.10;;;10.20;;
79464;SDS011;68932;47.410;8.232;2023-08-21T07:04:56;17.80;;;11.20;;
79464;SDS011;68932;47.410;8.232;2023-08-21T07:07:25;19.00;;;10.90;;
79464;SDS011;68932;47.410;8.232;2023-08-21T07:09:53;17.70;;;12.20;;
79464;SDS011;68932;47.410;8.232;2023-08-21T07:12:22;14.00;;;10.70;;
79464;SDS011;68932;47.410;8.232;2023-08-21T07:14:51;15.60;;;11.40;;
79464;SDS011;68932;47.410;8.232;2023-08-21T07:17:19;15.80;;;11.30;;
79464;SDS011;68932;47.410;8.232;2023-08-21T07:19:47;13.80;;;11.00;;
79464;SDS011;68932;47.410;8.232;2023-08-21T07:22:15;15.90;;;10.80;;
79464;SDS011;68932;47.410;8.232;2023-08-21T07:24:44;14.10;;;10.70;;
79464;SDS011;68932;47.410;8.232;2023-08-21T07:27:12;14.20;;;10.70;;
79464;SDS011;68932;47.410;8.232;2023-08-21T07:29:40;12.40;;;10.30;;
79464;SDS011;68932;47.410;8.232;2023-08-21T07:32:09;13.40;;;10.20;;
79464;SDS011;68932;47.410;8.232;2023-08-21T07:34:37;12.70;;;10.50;;
79464;SDS011;68932;47.410;8.232;2023-08-21T07:37:07;11.50;;;10.10;;
79464;SDS011;68932;47.410;8.232;2023-08-21T07:39:35;13.10;;;10.40;;
79464;SDS011;68932;47.410;8.232;2023-08-21T07:42:04;12.40;;;10.30;;
79464;SDS011;68932;47.410;8.232;2023-08-21T07:44:32;11.50;;;9.80;;
79464;SDS011;68932;47.410;8.232;2023-08-21T07:47:01;11.70;;;9.50;;
79464;SDS011;68932;47.410;8.232;2023-08-21T07:49:29;12.50;;;8.80;;
79464;SDS011;68932;47.410;8.232;2023-08-21T07:51:58;12.30;;;9.40;;
79464;SDS011;68932;47.410;8.232;2023-08-21T07:54:26;11.40;;;9.30;;
79464;SDS011;68932;47.410;8.232;2023-08-21T07:56:55;12.70;;;9.90;;
79464;SDS011;68932;47.410;8.232;2023-08-21T07:59:23;14.20;;;9.20;;
79464;SDS011;68932;47.410;8.232;2023-08-21T08:01:51;13.90;;;9.10;;
79464;SDS011;68932;47.410;8.232;2023-08-21T08:04:19;12.50;;;8.70;;
79464;SDS011;68932;47.410;8.232;2023-08-21T08:06:48;9.20;;;8.10;;
79464;SDS011;68932;47.410;8.232;2023-08-21T08:09:16;9.20;;;7.40;;
79464;SDS011;68932;47.410;8.232;2023-08-21T08:11:44;11.70;;;8.20;;
79464;SDS011;68932;47.410;8.232;2023-08-21T08:14:13;12.70;;;8.90;;
79464;SDS011;68932;47.410;8.232;2023-08-21T08:16:41;10.20;;;8.20;;
79464;SDS011;68932;47.410;8.232;2023-08-21T08:19:09;10.00;;;8.40;;
79464;SDS011;68932;47.410;8.232;2023-08-21T08:21:38;9.20;;;7.90;;
79464;SDS011;68932;47.410;8.232;2023-08-21T08:24:06;9.00;;;8.00;;
79464;SDS011;68932;47.410;8.232;2023-08-21T08:26:34;10.80;;;8.60;;
79464;SDS011;68932;47.410;8.232;2023-08-21T08:29:02;11.20;;;8.20;;
79464;SDS011;68932;47.410;8.232;2023-08-21T08:31:31;11.80;;;8.90;;
79464;SDS011;68932;47.410;8.232;2023-08-21T08:33:59;10.30;;;7.80;;
79464;SDS011;68932;47.410;8.232;2023-08-21T08:36:27;11.30;;;8.60;;
79464;SDS011;68932;47.410;8.232;2023-08-21T08:38:55;9.50;;;7.80;;
79464;SDS011;68932;47.410;8.232;2023-08-21T08:41:25;9.80;;;8.30;;
79464;SDS011;68932;47.410;8.232;2023-08-21T08:43:59;9.40;;;8.00;;
79464;SDS011;68932;47.410;8.232;2023-08-21T08:46:30;9.70;;;8.30;;
79464;SDS011;68932;47.410;8.232;2023-08-21T08:48:58;13.10;;;8.30;;
79464;SDS011;68932;47.410;8.232;2023-08-21T08:51:28;8.80;;;7.70;;
79464;SDS011;68932;47.410;8.232;2023-08-21T08:54:00;8.90;;;8.00;;
79464;SDS011;68932;47.410;8.232;2023-08-21T08:56:29;10.80;;;8.30;;
79464;SDS011;68932;47.410;8.232;2023-08-21T08:58:58;9.80;;;8.20;;
79464;SDS011;68932;47.410;8.232;2023-08-21T09:01:26;9.00;;;8.10;;
79464;SDS011;68932;47.410;8.232;2023-08-21T09:03:55;11.30;;;7.70;;
79464;SDS011;68932;47.410;8.232;2023-08-21T09:06:23;9.60;;;7.90;;
79464;SDS011;68932;47.410;8.232;2023-08-21T09:08:54;10.10;;;8.70;;
79464;SDS011;68932;47.410;8.232;2023-08-21T09:11:23;8.90;;;7.20;;
79464;SDS011;68932;47.410;8.232;2023-08-21T09:13:52;10.30;;;7.70;;
79464;SDS011;68932;47.410;8.232;2023-08-21T09:16:21;9.50;;;7.90;;
79464;SDS011;68932;47.410;8.232;2023-08-21T09:18:52;9.30;;;8.30;;
79464;SDS011;68932;47.410;8.232;2023-08-21T09:21:21;9.70;;;7.90;;
79464;SDS011;68932;47.410;8.232;2023-08-21T09:23:56;9.50;;;7.80;;
79464;SDS011;68932;47.410;8.232;2023-08-21T09:26:26;10.20;;;7.60;;
79464;SDS011;68932;47.410;8.232;2023-08-21T09:28:57;9.00;;;7.50;;
79464;SDS011;68932;47.410;8.232;2023-08-21T09:31:31;9.60;;;7.40;;
79464;SDS011;68932;47.410;8.232;2023-08-21T09:34:00;8.60;;;7.70;;
79464;SDS011;68932;47.410;8.232;2023-08-21T09:36:30;8.20;;;7.30;;
79464;SDS011;68932;47.410;8.232;2023-08-21T09:38:59;9.20;;;8.20;;
79464;SDS011;68932;47.410;8.232;2023-08-21T09:41:28;9.70;;;7.80;;
79464;SDS011;68932;47.410;8.232;2023-08-21T09:43:59;9.50;;;7.70;;
79464;SDS011;68932;47.410;8.232;2023-08-21T09:48:54;11.80;;;7.60;;
79464;SDS011;68932;47.410;8.232;2023-08-21T09:51:23;9.00;;;6.70;;
79464;SDS011;68932;47.410;8.232;2023-08-21T09:53:58;9.30;;;6.90;;
79464;SDS011;68932;47.410;8.232;2023-08-21T09:56:28;8.90;;;7.50;;
79464;SDS011;68932;47.410;8.232;2023-08-21T09:58:58;11.40;;;7.20;;
79464;SDS011;68932;47.410;8.232;2023-08-21T10:01:26;10.30;;;7.30;;
79464;SDS011;68932;47.410;8.232;2023-08-21T10:03:55;8.90;;;7.70;;
79464;SDS011;68932;47.410;8.232;2023-08-21T10:06:27;8.80;;;7.30;;
79464;SDS011;68932;47.410;8.232;2023-08-21T10:08:56;10.60;;;7.50;;
79464;SDS011;68932;47.410;8.232;2023-08-21T10:11:25;9.30;;;7.30;;
79464;SDS011;68932;47.410;8.232;2023-08-21T10:13:54;8.80;;;7.40;;
79464;SDS011;68932;47.410;8.232;2023-08-21T10:16:24;10.30;;;7.10;;
79464;SDS011;68932;47.410;8.232;2023-08-21T10:18:53;12.90;;;7.70;;
79464;SDS011;68932;47.410;8.232;2023-08-21T10:21:22;10.80;;;7.80;;
79464;SDS011;68932;47.410;8.232;2023-08-21T10:23:52;13.80;;;7.90;;
79464;SDS011;68932;47.410;8.232;2023-08-21T10:26:22;7.40;;;6.70;;
79464;SDS011;68932;47.410;8.232;2023-08-21T10:28:54;11.80;;;7.80;;
79464;SDS011;68932;47.410;8.232;2023-08-21T10:33:59;11.60;;;6.90;;
79464;SDS011;68932;47.410;8.232;2023-08-21T10:37:02;10.10;;;7.30;;
79464;SDS011;68932;47.410;8.232;2023-08-21T10:39:31;8.50;;;5.90;;
79464;SDS011;68932;47.410;8.232;2023-08-21T10:42:01;8.90;;;6.50;;
79464;SDS011;68932;47.410;8.232;2023-08-21T10:44:46;8.70;;;6.70;;
79464;SDS011;68932;47.410;8.232;2023-08-21T10:47:16;8.70;;;6.90;;
79464;SDS011;68932;47.410;8.232;2023-08-21T10:49:47;10.40;;;7.20;;
79464;SDS011;68932;47.410;8.232;2023-08-21T10:52:19;9.50;;;7.50;;
79464;SDS011;68932;47.410;8.232;2023-08-21T10:54:50;8.60;;;6.80;;
79464;SDS011;68932;47.410;8.232;2023-08-21T10:57:20;8.20;;;6.70;;
79464;SDS011;68932;47.410;8.232;2023-08-21T10:59:55;10.60;;;7.30;;
79464;SDS011;68932;47.410;8.232;2023-08-21T11:02:25;11.80;;;7.30;;
79464;SDS011;68932;47.410;8.232;2023-08-21T11:04:54;13.00;;;7.50;;
79464;SDS011;68932;47.410;8.232;2023-08-21T11:07:23;9.40;;;7.20;;
79464;SDS011;68932;47.410;8.232;2023-08-21T11:09:52;8.50;;;7.00;;
79464;SDS011;68932;47.410;8.232;2023-08-21T11:12:21;8.80;;;7.60;;
79464;SDS011;68932;47.410;8.232;2023-08-21T11:14:50;12.00;;;7.20;;
79464;SDS011;68932;47.410;8.232;2023-08-21T11:17:19;8.50;;;6.70;;
79464;SDS011;68932;47.410;8.232;2023-08-21T11:19:47;11.00;;;6.90;;
79464;SDS011;68932;47.410;8.232;2023-08-21T11:22:16;8.10;;;6.70;;
79464;SDS011;68932;47.410;8.232;2023-08-21T11:24:45;6.20;;;5.50;;
79464;SDS011;68932;47.410;8.232;2023-08-21T11:27:14;6.40;;;5.90;;
79464;SDS011;68932;47.410;8.232;2023-08-21T11:29:44;6.70;;;5.80;;
79464;SDS011;68932;47.410;8.232;2023-08-21T11:32:14;10.80;;;6.80;;
79464;SDS011;68932;47.410;8.232;2023-08-21T11:34:47;8.20;;;6.10;;
79464;SDS011;68932;47.410;8.232;2023-08-21T11:37:17;9.50;;;6.20;;
79464;SDS011;68932;47.410;8.232;2023-08-21T11:39:47;7.80;;;6.10;;
79464;SDS011;68932;47.410;8.232;2023-08-21T11:42:16;7.80;;;6.30;;
79464;SDS011;68932;47.410;8.232;2023-08-21T11:44:46;9.40;;;6.20;;
79464;SDS011;68932;47.410;8.232;2023-08-21T11:47:16;8.80;;;5.80;;
79464;SDS011;68932;47.410;8.232;2023-08-21T11:49:46;7.30;;;5.50;;
79464;SDS011;68932;47.410;8.232;2023-08-21T11:52:17;8.80;;;5.80;;
79464;SDS011;68932;47.410;8.232;2023-08-21T11:54:47;6.50;;;5.90;;
79464;SDS011;68932;47.410;8.232;2023-08-21T11:57:16;10.20;;;6.00;;
79464;SDS011;68932;47.410;8.232;2023-08-21T11:59:48;8.40;;;6.40;;
79464;SDS011;68932;47.410;8.232;2023-08-21T12:02:18;8.80;;;7.10;;
79464;SDS011;68932;47.410;8.232;2023-08-21T12:04:52;9.20;;;6.20;;
79464;SDS011;68932;47.410;8.232;2023-08-21T12:07:26;10.50;;;6.10;;
79464;SDS011;68932;47.410;8.232;2023-08-21T12:09:55;6.60;;;5.60;;
79464;SDS011;68932;47.410;8.232;2023-08-21T12:12:23;7.30;;;6.50;;
79464;SDS011;68932;47.410;8.232;2023-08-21T12:14:52;10.20;;;5.90;;
79464;SDS011;68932;47.410;8.232;2023-08-21T12:17:20;7.60;;;6.00;;
79464;SDS011;68932;47.410;8.232;2023-08-21T12:19:48;7.40;;;5.60;;
79464;SDS011;68932;47.410;8.232;2023-08-21T12:22:16;8.40;;;6.70;;
79464;SDS011;68932;47.410;8.232;2023-08-21T12:24:45;7.70;;;6.10;;
79464;SDS011;68932;47.410;8.232;2023-08-21T12:27:13;9.70;;;6.50;;
79464;SDS011;68932;47.410;8.232;2023-08-21T12:29:42;10.10;;;6.00;;
79464;SDS011;68932;47.410;8.232;2023-08-21T12:32:10;7.50;;;5.80;;
79464;SDS011;68932;47.410;8.232;2023-08-21T12:34:38;7.80;;;6.20;;
79464;SDS011;68932;47.410;8.232;2023-08-21T12:37:06;9.90;;;5.80;;
79464;SDS011;68932;47.410;8.232;2023-08-21T12:39:35;8.90;;;6.00;;
79464;SDS011;68932;47.410;8.232;2023-08-21T12:42:03;6.80;;;5.90;;
79464;SDS011;68932;47.410;8.232;2023-08-21T12:44:32;8.70;;;6.70;;
79464;SDS011;68932;47.410;8.232;2023-08-21T12:47:00;6.90;;;5.90;;
79464;SDS011;68932;47.410;8.232;2023-08-21T12:49:29;9.40;;;6.30;;
79464;SDS011;68932;47.410;8.232;2023-08-21T12:51:57;7.00;;;5.80;;
79464;SDS011;68932;47.410;8.232;2023-08-21T12:54:25;10.60;;;6.20;;
79464;SDS011;68932;47.410;8.232;2023-08-21T12:56:54;7.10;;;5.60;;
79464;SDS011;68932;47.410;8.232;2023-08-21T12:59:22;7.10;;;5.60;;
79464;SDS011;68932;47.410;8.232;2023-08-21T13:01:50;8.40;;;5.70;;
79464;SDS011;68932;47.410;8.232;2023-08-21T13:04:19;8.40;;;5.80;;
79464;SDS011;68932;47.410;8.232;2023-08-21T13:06:47;8.00;;;5.80;;
79464;SDS011;68932;47.410;8.232;2023-08-21T13:09:15;9.60;;;6.10;;
79464;SDS011;68932;47.410;8.232;2023-08-21T13:11:43;9.70;;;6.10;;
79464;SDS011;68932;47.410;8.232;2023-08-21T13:14:12;8.50;;;6.00;;
79464;SDS011;68932;47.410;8.232;2023-08-21T13:16:40;7.60;;;5.60;;
79464;SDS011;68932;47.410;8.232;2023-08-21T13:19:08;7.00;;;5.70;;
79464;SDS011;68932;47.410;8.232;2023-08-21T13:21:37;8.30;;;6.00;;
79464;SDS011;68932;47.410;8.232;2023-08-21T13:24:06;9.50;;;6.00;;
79464;SDS011;68932;47.410;8.232;2023-08-21T13:26:34;7.40;;;5.70;;
79464;SDS011;68932;47.410;8.232;2023-08-21T13:29:02;7.00;;;5.40;;
79464;SDS011;68932;47.410;8.232;2023-08-21T13:31:31;9.00;;;5.30;;
79464;SDS011;68932;47.410;8.232;2023-08-21T13:33:59;6.20;;;5.40;;
79464;SDS011;68932;47.410;8.232;2023-08-21T13:36:28;7.20;;;5.80;;
79464;SDS011;68932;47.410;8.232;2023-08-21T13:38:56;9.70;;;6.00;;
79464;SDS011;68932;47.410;8.232;2023-08-21T13:41:24;9.20;;;6.80;;
79464;SDS011;68932;47.410;8.232;2023-08-21T13:43:53;9.30;;;5.40;;
79464;SDS011;68932;47.410;8.232;2023-08-21T13:46:21;6.60;;;5.80;;
79464;SDS011;68932;47.410;8.232;2023-08-21T13:48:49;7.80;;;5.30;;
79464;SDS011;68932;47.410;8.232;2023-08-21T13:51:17;7.70;;;5.60;;
79464;SDS011;68932;47.410;8.232;2023-08-21T13:53:46;8.60;;;5.40;;
79464;SDS011;68932;47.410;8.232;2023-08-21T13:56:14;8.20;;;5.10;;
79464;SDS011;68932;47.410;8.232;2023-08-21T13:58:42;7.90;;;5.80;;
79464;SDS011;68932;47.410;8.232;2023-08-21T14:01:10;13.00;;;6.70;;
79464;SDS011;68932;47.410;8.232;2023-08-21T14:03:39;9.50;;;5.30;;
79464;SDS011;68932;47.410;8.232;2023-08-21T14:06:08;10.60;;;5.50;;
79464;SDS011;68932;47.410;8.232;2023-08-21T14:08:36;7.80;;;5.00;;
79464;SDS011;68932;47.410;8.232;2023-08-21T14:11:05;9.90;;;5.60;;
79464;SDS011;68932;47.410;8.232;2023-08-21T14:13:33;6.70;;;5.50;;
79464;SDS011;68932;47.410;8.232;2023-08-21T14:16:01;8.00;;;5.60;;
79464;SDS011;68932;47.410;8.232;2023-08-21T14:18:30;10.10;;;6.00;;
79464;SDS011;68932;47.410;8.232;2023-08-21T14:20:58;8.60;;;5.50;;
79464;SDS011;68932;47.410;8.232;2023-08-21T14:23:26;5.60;;;5.00;;
79464;SDS011;68932;47.410;8.232;2023-08-21T14:25:55;8.70;;;5.70;;
79464;SDS011;68932;47.410;8.232;2023-08-21T14:28:23;6.90;;;4.70;;
79464;SDS011;68932;47.410;8.232;2023-08-21T14:30:51;6.10;;;5.50;;
79464;SDS011;68932;47.410;8.232;2023-08-21T14:33:20;7.10;;;5.10;;
79464;SDS011;68932;47.410;8.232;2023-08-21T14:35:48;6.50;;;4.60;;
79464;SDS011;68932;47.410;8.232;2023-08-21T14:38:17;6.30;;;4.70;;
79464;SDS011;68932;47.410;8.232;2023-08-21T14:40:45;8.70;;;5.00;;
79464;SDS011;68932;47.410;8.232;2023-08-21T14:43:13;5.80;;;5.20;;
79464;SDS011;68932;47.410;8.232;2023-08-21T14:45:41;7.80;;;5.30;;
79464;SDS011;68932;47.410;8.232;2023-08-21T14:48:10;7.80;;;5.80;;
79464;SDS011;68932;47.410;8.232;2023-08-21T14:50:38;5.90;;;4.50;;
79464;SDS011;68932;47.410;8.232;2023-08-21T14:53:06;8.00;;;4.70;;
79464;SDS011;68932;47.410;8.232;2023-08-21T14:55:34;5.50;;;4.70;;